Racecast

Presley Christensen

Jefferson County (OR) · 7 · District XC · Compare head to head

Athlete rating 115.9 2026 TF season
Best race 120.3 XC
Races 43
Seasons 3 2024 — 2026

RankedNation #15143·OR #448·Team #7 ?

Rating scale ?
Speed rating — all races

Cross Country

XC speed rating

2025 XC 110.3

Jefferson County (OR) · Grade 7

Date Meet Event Result Place Rating Difficulty PR/SR Flags
2025-10-16 Juniper Hills Park 3000m 14:09 14th · 2nd on team 113.6 +0.046 CSR RSR
2025-10-09 Crooked River Wetlands 3000m 13:41.1 6th · 1st on team 112.9 +0.005 ★CR SR CSR RSR
2025-09-25 Sisters Middle School 3000m 14:04.05 12th · 1st on team 108.3 -0.029 ★CR SR CSR
2025-09-18 Crooked River Wetlands 3000m 14:22.6 4th · 1st on team 108.4 +0.005 CR SR CSR RSR
2025-09-11 Juniper Hills Park 3000m 14:56.1 12th · 2nd on team 108.2 +0.046 SR CSR RSR

2024 XC 115.4

Jefferson County (OR) · Grade 6

Date Meet Event Result Place Rating Difficulty PR/SR Flags
2024-10-18 Juniper Hills Park 3000m 13:25.4 10th · 2nd on team 120.3 +0.046 ★CR ★R CSR RSR
2024-10-09 Sisters HS 3000m 12:58.45 2nd · 1st on team 119.4 +0.002 ★PR ★CR R SR CSR RSR
2024-10-03 Bend Pine Nursery 3000m 13:54.4 6th · 2nd on team 112.7 +0.017 ★CR CSR
2024-09-25 American Legion Park 3000m 13:25.24 4th · 2nd on team 117.4 +0.018 PR ★CR R SR CSR RSR
2024-09-18 Sisters HS 3000m 13:57.75 6th · 1st on team 110.1 +0.002 PR CR SR CSR
2024-09-12 Juniper Hills Park 3000m 14:24 6th · 1st on team 112.7 +0.046 PR CR R SR CSR RSR

Track & Field

TF speed rating

2026 TF 115.0

Jefferson County (OR) · Grade 7

Date Meet Event Result Place Rating Difficulty PR/SR Flags
2026-05-12 Greater Central Oregon Track & Field Middle School Championship shot 24' 2.5" -0.011
2026-05-12 Greater Central Oregon Track & Field Middle School Championship javelin 67' 9" -0.011
2026-05-12 Greater Central Oregon Track & Field Middle School Championship 800m 2:58.68 7th · 1st on team 114.4 -0.011
2026-05-07 Lon Austin CCMS Home Invite #2 javelin 72' 5.5" -0.007
2026-05-07 Lon Austin CCMS Home Invite #2 shot 22' 10" -0.007
2026-05-07 Lon Austin CCMS Home Invite #2 800m 2:59.03 3rd · 1st on team 114.8 -0.007
2026-04-30 WSK8/JCMS High Desert Dash javelin 67-00 -0.011
2026-04-30 WSK8/JCMS High Desert Dash shot 22-01.50 -0.011
2026-04-30 WSK8/JCMS High Desert Dash 800m 2:56.04 1st · 1st on team 116.2 -0.011 SR RSR
2026-04-23 SMS Meet javelin 70' 10" -0.011
2026-04-23 SMS Meet discus 39' 10" -0.011
2026-04-23 SMS Meet 800m 2:56.59 3rd · 1st on team 115.8 -0.011 SR RSR
2026-04-16 WSK8/JCMS Track Meet 1 shot 19-10.50 -0.011
2026-04-16 WSK8/JCMS Track Meet 1 javelin 72-03 -0.011
2026-04-16 WSK8/JCMS Track Meet 1 800m 2:59.68 3rd · 1st on team 113.8 -0.011 SR RSR

2025 TF 115.0

Jefferson County (OR) · Grade 6

Date Meet Event Result Place Rating Difficulty PR/SR Flags
2025-05-13 Greater Central Oregon Track & Field Middle School Championships javelin 68' 6" -0.011
2025-05-13 Greater Central Oregon Track & Field Middle School Championships 800m 2:53.57 4th · 2nd on team 118.6 -0.011 ★PR SR RSR
2025-05-08 EGMS District Preview javelin 70' 2" -0.004
2025-05-08 EGMS District Preview 400m 1:15.75 3rd · 1st on team -0.004
2025-05-08 EGMS District Preview 800m 2:58.84 1st · 1st on team 115.5 -0.004
2025-05-01 WSK8/JCMS High Desert Dash v.2 javelin 62-04 -0.011
2025-05-01 WSK8/JCMS High Desert Dash v.2 800m 2:56.65 1st · 1st on team 116.0 -0.011 PR SR
2025-05-01 WSK8/JCMS High Desert Dash v.2 400m 1:13.45 2nd · 1st on team -0.011 ★PR SR
2025-04-23 LPMS Meet #1 javelin 54' 9" -0.004
2025-04-23 LPMS Meet #1 400m 1:16.12 3rd · 3rd on team -0.004
2025-04-23 LPMS Meet #1 800m 2:57.63 1st · 1st on team 116.0 -0.004 PR SR RSR
2025-04-10 The WSK8/JCMS High Desert Dash javelin 53-10 -0.011
2025-04-10 The WSK8/JCMS High Desert Dash 800m 3:04.4 1st · 1st on team 111.0 -0.011
2025-04-10 The WSK8/JCMS High Desert Dash 400m 1:15.38 2nd · 2nd on team -0.011
2025-04-02 SMS Tri Meet (with JCMS & CCMS) javelin 70' 11" -0.011
2025-04-02 SMS Tri Meet (with JCMS & CCMS) 800m 3:01.24 1st · 1st on team 112.8 -0.011 PR SR RSR
2025-04-02 SMS Tri Meet (with JCMS & CCMS) 400m 1:14.3 1st · 1st on team -0.011 PR SR